createdAt,value
2017-10-02T00:00:40.951Z,1008.74
2017-10-02T00:01:40.928Z,1008.73
2017-10-02T00:02:40.907Z,1008.74
2017-10-02T00:03:40.886Z,1008.76
2017-10-02T00:04:40.868Z,1008.73
2017-10-02T00:05:40.841Z,1008.84
2017-10-02T00:06:40.820Z,1008.79
2017-10-02T00:07:40.799Z,1008.75
2017-10-02T00:08:40.775Z,1008.76
2017-10-02T00:09:40.754Z,1008.75
2017-10-02T00:10:40.755Z,1008.72
2017-10-02T00:11:40.708Z,1008.66
2017-10-02T00:12:40.689Z,1008.59
2017-10-02T00:13:40.668Z,1008.58
2017-10-02T00:14:40.645Z,1008.58
2017-10-02T00:15:40.623Z,1008.54
2017-10-02T00:16:40.600Z,1008.58
2017-10-02T00:17:40.579Z,1008.54
2017-10-02T00:18:40.557Z,1008.53
2017-10-02T00:19:40.537Z,1008.55
2017-10-02T00:20:40.513Z,1008.46
2017-10-02T00:21:40.492Z,1008.45
2017-10-02T00:22:40.469Z,1008.41
2017-10-02T00:23:40.447Z,1008.4
2017-10-02T00:24:40.424Z,1008.36
2017-10-02T00:25:40.405Z,1008.31
2017-10-02T00:26:40.381Z,1008.33
2017-10-02T00:27:40.360Z,1008.28
2017-10-02T00:28:40.337Z,1008.28
2017-10-02T00:29:40.316Z,1008.33
2017-10-02T00:30:40.293Z,1008.3
2017-10-02T00:31:40.272Z,1008.31
2017-10-02T00:32:40.253Z,1008.29
2017-10-02T00:33:40.277Z,1008.31
2017-10-02T00:34:40.206Z,1008.32
2017-10-02T00:35:40.183Z,1008.31
2017-10-02T00:36:40.171Z,1008.29
2017-10-02T00:37:40.140Z,1008.3
2017-10-02T00:38:40.120Z,1008.26
2017-10-02T00:39:40.095Z,1008.24
2017-10-02T00:40:40.074Z,1008.24
2017-10-02T00:41:40.053Z,1008.21
2017-10-02T00:42:40.034Z,1008.21
2017-10-02T00:43:40.009Z,1008.21
2017-10-02T00:44:39.988Z,1008.21
2017-10-02T00:45:39.965Z,1008.25
2017-10-02T00:46:39.943Z,1008.22
2017-10-02T00:47:39.944Z,1008.22
2017-10-02T00:48:39.901Z,1008.26
2017-10-02T00:49:39.877Z,1008.25
2017-10-02T00:50:39.857Z,1008.22
2017-10-02T00:51:39.836Z,1008.25
2017-10-02T00:52:39.811Z,1008.23
2017-10-02T00:53:39.789Z,1008.22
2017-10-02T00:54:39.768Z,1008.2
2017-10-02T00:55:39.747Z,1008.15
2017-10-02T00:56:39.723Z,1008.13
2017-10-02T00:57:39.701Z,1008.12
2017-10-02T00:58:39.678Z,1008.06
2017-10-02T00:59:39.658Z,1008.07
2017-10-02T01:00:39.634Z,1008.04
2017-10-02T01:01:39.615Z,1008.01
2017-10-02T01:02:39.596Z,1007.97
2017-10-02T01:03:39.567Z,1007.98
2017-10-02T01:04:39.547Z,1007.96
2017-10-02T01:05:39.578Z,1007.89
2017-10-02T01:06:39.505Z,1007.87
2017-10-02T01:07:39.482Z,1007.9
2017-10-02T01:08:39.462Z,1007.82
2017-10-02T01:09:39.437Z,1007.79
2017-10-02T01:10:39.416Z,1007.75
2017-10-02T01:11:39.391Z,1007.8
2017-10-02T01:12:39.372Z,1007.84
2017-10-02T01:13:39.351Z,1007.78
2017-10-02T01:14:39.324Z,1007.84
2017-10-02T01:15:39.306Z,1007.84
2017-10-02T01:16:39.285Z,1007.8
2017-10-02T01:17:39.262Z,1007.84
2017-10-02T01:18:39.243Z,1007.65
2017-10-02T01:19:39.217Z,1007.6
2017-10-02T01:20:39.196Z,1007.61
2017-10-02T01:21:39.173Z,1007.51
2017-10-02T01:22:39.149Z,1007.52
2017-10-02T01:23:39.130Z,1007.44
2017-10-02T01:24:39.109Z,1007.35
2017-10-02T01:25:39.088Z,1007.32
2017-10-02T01:26:39.065Z,1007.22
2017-10-02T01:27:39.045Z,1007.2
2017-10-02T01:28:39.021Z,1007.19
2017-10-02T01:29:39.000Z,1007.24
2017-10-02T01:30:38.979Z,1007.17
2017-10-02T01:31:38.955Z,1007.15
2017-10-02T01:32:38.935Z,1007.17
2017-10-02T01:33:38.910Z,1007.06
2017-10-02T01:34:38.889Z,1007.07
2017-10-02T01:35:38.864Z,1007.06
2017-10-02T01:36:38.850Z,1006.98
2017-10-02T01:37:38.823Z,1006.97
2017-10-02T01:38:38.808Z,1006.97
2017-10-02T01:39:38.779Z,1006.95
2017-10-02T01:40:38.758Z,1006.91
2017-10-02T01:41:38.734Z,1006.95
2017-10-02T01:42:38.713Z,1006.96
2017-10-02T01:43:38.696Z,1006.98
2017-10-02T01:44:38.669Z,1006.92
2017-10-02T01:45:38.649Z,1007.02
2017-10-02T01:46:38.625Z,1007.01
2017-10-02T01:47:38.603Z,1007.05
2017-10-02T01:48:38.588Z,1007.02
2017-10-02T01:49:38.564Z,1007.07
2017-10-02T01:50:38.540Z,1007.03
2017-10-02T01:51:38.516Z,1006.98
2017-10-02T01:52:38.495Z,1007.01
2017-10-02T01:53:38.472Z,1006.9
2017-10-02T01:54:38.451Z,1006.92
2017-10-02T01:55:38.425Z,1006.93
2017-10-02T01:56:38.406Z,1006.94
2017-10-02T01:57:38.386Z,1006.91
2017-10-02T01:58:38.361Z,1006.89
2017-10-02T01:59:38.351Z,1006.87
2017-10-02T02:00:38.315Z,1006.87
2017-10-02T02:01:38.298Z,1006.86
2017-10-02T02:02:38.275Z,1006.78
2017-10-02T02:03:38.254Z,1006.79
2017-10-02T02:04:38.230Z,1006.74
2017-10-02T02:05:38.204Z,1006.76
2017-10-02T02:06:38.190Z,1006.68
2017-10-02T02:07:38.171Z,1006.72
2017-10-02T02:08:38.145Z,1006.7
2017-10-02T02:09:38.117Z,1006.67
2017-10-02T02:10:38.101Z,1006.64
2017-10-02T02:11:38.076Z,1006.72
2017-10-02T02:12:38.057Z,1006.73
2017-10-02T02:13:38.038Z,1006.71
2017-10-02T02:14:38.013Z,1006.71
2017-10-02T02:15:37.989Z,1006.63
2017-10-02T02:16:38.016Z,1006.61
2017-10-02T02:17:37.947Z,1006.58
2017-10-02T02:18:37.974Z,1006.59
2017-10-02T02:19:37.900Z,1006.53
2017-10-02T02:20:37.879Z,1006.49
2017-10-02T02:21:37.856Z,1006.44
2017-10-02T02:22:37.839Z,1006.4
2017-10-02T02:23:37.812Z,1006.37
2017-10-02T02:24:37.790Z,1006.34
2017-10-02T02:25:37.767Z,1006.25
2017-10-02T02:26:37.751Z,1006.27
2017-10-02T02:27:37.723Z,1006.27
2017-10-02T02:28:37.702Z,1006.31
2017-10-02T02:29:37.687Z,1006.37
2017-10-02T02:30:37.657Z,1006.39
2017-10-02T02:31:37.634Z,1006.46
2017-10-02T02:32:37.611Z,1006.41
2017-10-02T02:33:37.592Z,1006.42
2017-10-02T02:34:37.566Z,1006.32
2017-10-02T02:35:37.545Z,1006.36
2017-10-02T02:36:37.522Z,1006.36
2017-10-02T02:37:37.503Z,1006.37
2017-10-02T02:38:37.477Z,1006.4
2017-10-02T02:39:37.458Z,1006.39
2017-10-02T02:40:37.433Z,1006.39
2017-10-02T02:41:37.413Z,1006.4
2017-10-02T02:42:37.387Z,1006.44
2017-10-02T02:43:37.366Z,1006.45
2017-10-02T02:44:37.352Z,1006.44
2017-10-02T02:45:37.321Z,1006.51
2017-10-02T02:46:37.300Z,1006.52
2017-10-02T02:47:37.282Z,1006.54
2017-10-02T02:48:37.255Z,1006.56
2017-10-02T02:49:37.233Z,1006.57
2017-10-02T02:50:37.209Z,1006.62
2017-10-02T02:51:37.187Z,1006.61
2017-10-02T02:52:37.167Z,1006.63
2017-10-02T02:53:37.141Z,1006.66
2017-10-02T02:54:37.120Z,1006.61
2017-10-02T02:55:37.101Z,1006.63
2017-10-02T02:56:37.078Z,1006.66
2017-10-02T02:57:37.052Z,1006.61
2017-10-02T02:58:37.031Z,1006.57
2017-10-02T02:59:37.010Z,1006.55
2017-10-02T03:00:36.984Z,1006.63
2017-10-02T03:01:36.963Z,1006.55
2017-10-02T03:02:36.940Z,1006.58
2017-10-02T03:03:36.919Z,1006.53
2017-10-02T03:04:36.896Z,1006.47
2017-10-02T03:05:36.874Z,1006.45
2017-10-02T03:06:36.855Z,1006.48
2017-10-02T03:07:36.828Z,1006.44
2017-10-02T03:08:36.807Z,1006.43
2017-10-02T03:09:36.787Z,1006.47
2017-10-02T03:10:36.763Z,1006.48
2017-10-02T03:11:36.740Z,1006.47
2017-10-02T03:12:36.718Z,1006.47
2017-10-02T03:13:36.696Z,1006.47
2017-10-02T03:14:36.674Z,1006.47
2017-10-02T03:15:36.650Z,1006.47
2017-10-02T03:16:36.630Z,1006.46
2017-10-02T03:17:36.606Z,1006.48
2017-10-02T03:18:36.582Z,1006.42
2017-10-02T03:19:36.561Z,1006.42
2017-10-02T03:20:36.544Z,1006.38
2017-10-02T03:21:36.521Z,1006.41
2017-10-02T03:22:36.494Z,1006.36
2017-10-02T03:23:36.473Z,1006.45
2017-10-02T03:24:36.452Z,1006.44
2017-10-02T03:25:36.428Z,1006.43
2017-10-02T03:26:36.405Z,1006.4
2017-10-02T03:27:36.384Z,1006.45
2017-10-02T03:28:36.361Z,1006.46
2017-10-02T03:29:36.339Z,1006.46
2017-10-02T03:30:36.317Z,1006.43
2017-10-02T03:31:36.295Z,1006.48
2017-10-02T03:32:36.276Z,1006.4
2017-10-02T03:33:36.250Z,1006.39
2017-10-02T03:34:36.227Z,1006.34
2017-10-02T03:35:36.206Z,1006.31
2017-10-02T03:36:36.185Z,1006.36
2017-10-02T03:37:36.162Z,1006.39
2017-10-02T03:38:36.138Z,1006.38
2017-10-02T03:39:36.122Z,1006.35
2017-10-02T03:40:36.096Z,1006.37
2017-10-02T03:41:36.071Z,1006.33
2017-10-02T03:42:36.052Z,1006.33
2017-10-02T03:43:36.032Z,1006.34
2017-10-02T03:44:36.005Z,1006.36
2017-10-02T03:45:35.984Z,1006.3
2017-10-02T03:46:35.961Z,1006.29
2017-10-02T03:47:35.942Z,1006.26
2017-10-02T03:48:35.916Z,1006.24
2017-10-02T03:49:35.895Z,1006.23
2017-10-02T03:50:35.872Z,1006.13
2017-10-02T03:51:35.849Z,1006.12
2017-10-02T03:52:35.828Z,1006.12
2017-10-02T03:53:35.806Z,1006.11
2017-10-02T03:54:35.783Z,1006.15
2017-10-02T03:55:35.760Z,1006.14
2017-10-02T03:56:35.737Z,1006.14
2017-10-02T03:57:35.716Z,1006.1
2017-10-02T03:58:35.695Z,1006.11
2017-10-02T03:59:35.673Z,1006.06
2017-10-02T04:00:35.649Z,1006.08
2017-10-02T04:01:35.626Z,1006.05
2017-10-02T04:02:35.603Z,1006.05
2017-10-02T04:03:35.582Z,1006.08
2017-10-02T04:04:35.559Z,1006
2017-10-02T04:05:35.539Z,1006.07
2017-10-02T04:06:35.514Z,1006.07
2017-10-02T04:07:35.492Z,1006.02
2017-10-02T04:08:35.470Z,1006.03
2017-10-02T04:09:35.448Z,1006.08
2017-10-02T04:10:35.425Z,1006.07
2017-10-02T04:11:35.404Z,1006.04
2017-10-02T04:12:35.380Z,1006.01
2017-10-02T04:13:35.358Z,1005.99
2017-10-02T04:14:35.337Z,1006.06
2017-10-02T04:15:35.313Z,1006.03
2017-10-02T04:16:35.293Z,1006.02
2017-10-02T04:17:35.269Z,1006.12
2017-10-02T04:18:35.248Z,1006.08
2017-10-02T04:19:35.229Z,1006.08
2017-10-02T04:20:35.205Z,1006.1
2017-10-02T04:21:35.183Z,1006.12
2017-10-02T04:22:35.159Z,1006.08
2017-10-02T04:23:35.138Z,1006.1
2017-10-02T04:24:35.112Z,1006.05
2017-10-02T04:25:35.095Z,1006.07
2017-10-02T04:26:35.068Z,1006.05
2017-10-02T04:27:35.047Z,1006.07
2017-10-02T04:28:35.024Z,1006.01
2017-10-02T04:29:35.004Z,1006.03
2017-10-02T04:30:34.979Z,1006.06
2017-10-02T04:31:34.955Z,1006
2017-10-02T04:32:34.933Z,1006
2017-10-02T04:33:34.911Z,1005.99
2017-10-02T04:34:34.890Z,1005.98
2017-10-02T04:35:34.869Z,1005.98
2017-10-02T04:36:34.844Z,1005.93
2017-10-02T04:37:34.823Z,1005.89
2017-10-02T04:38:34.801Z,1005.8
2017-10-02T04:39:34.778Z,1005.77
2017-10-02T04:40:34.757Z,1005.76
2017-10-02T04:41:34.740Z,1005.76
2017-10-02T04:42:34.710Z,1005.73
2017-10-02T04:43:34.692Z,1005.75
2017-10-02T04:44:34.669Z,1005.74
2017-10-02T04:45:34.647Z,1005.69
2017-10-02T04:46:34.625Z,1005.71
2017-10-02T04:47:34.600Z,1005.76
2017-10-02T04:48:34.577Z,1005.75
2017-10-02T04:49:34.556Z,1005.76
2017-10-02T04:50:34.537Z,1005.76
2017-10-02T04:51:34.510Z,1005.74
2017-10-02T04:52:34.489Z,1005.75
2017-10-02T04:53:34.465Z,1005.78
2017-10-02T04:54:34.444Z,1005.73
2017-10-02T04:55:34.422Z,1005.73
2017-10-02T04:56:34.400Z,1005.69
2017-10-02T04:57:34.376Z,1005.68
2017-10-02T04:58:34.356Z,1005.63
2017-10-02T04:59:34.331Z,1005.71
2017-10-02T05:00:34.312Z,1005.71
2017-10-02T05:01:34.287Z,1005.7
2017-10-02T05:02:34.264Z,1005.68
2017-10-02T05:03:34.243Z,1005.72
2017-10-02T05:04:34.220Z,1005.69
2017-10-02T05:05:34.198Z,1005.72
2017-10-02T05:06:34.176Z,1005.71
2017-10-02T05:07:34.154Z,1005.71
2017-10-02T05:08:34.132Z,1005.7
2017-10-02T05:09:34.110Z,1005.7
2017-10-02T05:10:34.086Z,1005.73
2017-10-02T05:11:34.067Z,1005.69
2017-10-02T05:12:34.042Z,1005.64
2017-10-02T05:13:34.021Z,1005.6
2017-10-02T05:14:33.998Z,1005.51
2017-10-02T05:15:33.974Z,1005.5
2017-10-02T05:16:33.951Z,1005.4
2017-10-02T05:17:33.935Z,1005.46
2017-10-02T05:18:33.909Z,1005.44
2017-10-02T05:19:33.887Z,1005.41
2017-10-02T05:20:33.864Z,1005.44
2017-10-02T05:21:33.843Z,1005.42
2017-10-02T05:22:33.822Z,1005.45
2017-10-02T05:23:33.799Z,1005.48
2017-10-02T05:24:33.777Z,1005.51
2017-10-02T05:25:33.754Z,1005.54
2017-10-02T05:26:33.731Z,1005.54
2017-10-02T05:27:33.710Z,1005.59
2017-10-02T05:28:33.689Z,1005.56
2017-10-02T05:29:33.668Z,1005.6
2017-10-02T05:30:33.644Z,1005.59
2017-10-02T05:31:33.621Z,1005.59
2017-10-02T05:32:33.600Z,1005.59
2017-10-02T05:33:33.571Z,1005.58
2017-10-02T05:34:33.555Z,1005.56
2017-10-02T05:35:33.532Z,1005.53
2017-10-02T05:36:33.509Z,1005.56
2017-10-02T05:37:33.484Z,1005.51
2017-10-02T05:38:33.467Z,1005.47
2017-10-02T05:39:33.441Z,1005.4
2017-10-02T05:40:33.425Z,1005.43
2017-10-02T05:41:33.400Z,1005.35
2017-10-02T05:42:33.381Z,1005.35
2017-10-02T05:43:33.378Z,1005.33
2017-10-02T05:44:33.333Z,1005.33
2017-10-02T05:45:33.314Z,1005.32
2017-10-02T05:46:33.289Z,1005.32
2017-10-02T05:47:33.265Z,1005.33
2017-10-02T05:48:33.244Z,1005.32
2017-10-02T05:49:33.224Z,1005.27
2017-10-02T05:50:33.200Z,1005.31
2017-10-02T05:51:33.181Z,1005.25
2017-10-02T05:52:33.159Z,1005.24
2017-10-02T05:53:33.134Z,1005.24
2017-10-02T05:54:33.111Z,1005.23
2017-10-02T05:55:33.090Z,1005.18
2017-10-02T05:56:33.070Z,1005.23
2017-10-02T05:57:33.045Z,1005.2
2017-10-02T05:58:33.022Z,1005.1
2017-10-02T05:59:32.999Z,1005.14
2017-10-02T06:00:32.980Z,1005.09
2017-10-02T06:01:32.956Z,1005.12
2017-10-02T06:02:32.938Z,1005.14
2017-10-02T06:03:32.910Z,1005.22
2017-10-02T06:04:32.889Z,1005.16
2017-10-02T06:05:32.868Z,1005.25
2017-10-02T06:06:32.845Z,1005.25
2017-10-02T06:07:32.821Z,1005.24
2017-10-02T06:08:32.800Z,1005.21
2017-10-02T06:09:32.781Z,1005.17
2017-10-02T06:10:32.754Z,1005.14
2017-10-02T06:11:32.762Z,1005.14
2017-10-02T06:12:32.715Z,1005.18
2017-10-02T06:13:32.690Z,1005.15
2017-10-02T06:14:32.666Z,1005.16
2017-10-02T06:15:32.645Z,1005.23
2017-10-02T06:16:32.627Z,1005.31
2017-10-02T06:17:32.600Z,1005.29
2017-10-02T06:18:32.578Z,1005.35
2017-10-02T06:19:32.557Z,1005.45
2017-10-02T06:20:32.533Z,1005.44
2017-10-02T06:21:32.509Z,1005.51
2017-10-02T06:22:32.489Z,1005.53
2017-10-02T06:23:32.467Z,1005.55
2017-10-02T06:24:32.445Z,1005.63
2017-10-02T06:25:32.423Z,1005.57
2017-10-02T06:26:32.400Z,1005.52
2017-10-02T06:27:32.379Z,1005.51
2017-10-02T06:28:32.355Z,1005.44
2017-10-02T06:29:32.334Z,1005.39
2017-10-02T06:30:32.311Z,1005.28
2017-10-02T06:31:32.290Z,1005.31
2017-10-02T06:32:32.271Z,1005.3
2017-10-02T06:33:32.245Z,1005.34
2017-10-02T06:34:32.271Z,1005.34
2017-10-02T06:35:32.201Z,1005.35
2017-10-02T06:36:32.180Z,1005.34
2017-10-02T06:37:32.160Z,1005.32
2017-10-02T06:38:32.137Z,1005.33
2017-10-02T06:39:32.111Z,1005.27
2017-10-02T06:40:32.091Z,1005.35
2017-10-02T06:41:32.071Z,1005.28
2017-10-02T06:42:32.046Z,1005.24
2017-10-02T06:43:32.028Z,1005.27
2017-10-02T06:44:32.001Z,1005.27
2017-10-02T06:45:32.029Z,1005.24
2017-10-02T06:46:31.962Z,1005.18
2017-10-02T06:47:31.934Z,1005.18
2017-10-02T06:48:31.912Z,1005.15
2017-10-02T06:49:31.890Z,1005.17
2017-10-02T06:50:31.867Z,1005.19
2017-10-02T06:51:31.846Z,1005.21
2017-10-02T06:52:31.824Z,1005.22
2017-10-02T06:53:31.801Z,1005.28
2017-10-02T06:54:31.777Z,1005.33
2017-10-02T06:55:31.759Z,1005.3
2017-10-02T06:56:31.735Z,1005.27
2017-10-02T06:57:31.712Z,1005.25
2017-10-02T06:58:31.691Z,1005.22
2017-10-02T06:59:31.675Z,1005.22
2017-10-02T07:00:31.646Z,1005.24
2017-10-02T07:01:31.625Z,1005.16
2017-10-02T07:02:31.605Z,1005.23
2017-10-02T07:03:31.581Z,1005.2
2017-10-02T07:04:31.566Z,1005.21
2017-10-02T07:05:31.537Z,1005.21
2017-10-02T07:06:31.519Z,1005.14
2017-10-02T07:07:31.493Z,1005.19
2017-10-02T07:08:31.473Z,1005.19
2017-10-02T07:09:31.446Z,1005.21
2017-10-02T07:10:31.429Z,1005.2
2017-10-02T07:11:31.405Z,1005.2
2017-10-02T07:12:31.432Z,1005.15
2017-10-02T07:13:31.360Z,1005.12
2017-10-02T07:14:31.338Z,1005.11
2017-10-02T07:15:31.318Z,1005.15
2017-10-02T07:16:31.293Z,1005.1
2017-10-02T07:17:31.272Z,1005.16
2017-10-02T07:18:31.253Z,1005.16
2017-10-02T07:19:31.228Z,1005.17
2017-10-02T07:20:31.206Z,1005.13
2017-10-02T07:21:31.183Z,1005.15
2017-10-02T07:22:31.162Z,1005.2
2017-10-02T07:23:31.139Z,1005.14
2017-10-02T07:24:31.118Z,1005.13
2017-10-02T07:25:31.092Z,1005.1
2017-10-02T07:26:31.074Z,1005.1
2017-10-02T07:27:31.051Z,1005.06
2017-10-02T07:28:31.027Z,1005.07
2017-10-02T07:29:31.014Z,1005.05
2017-10-02T07:30:31.018Z,1004.99
2017-10-02T07:31:30.963Z,1005.05
2017-10-02T07:32:30.942Z,1005.02
2017-10-02T07:33:30.919Z,1005
2017-10-02T07:34:30.897Z,1004.99
2017-10-02T07:35:30.876Z,1004.98
2017-10-02T07:36:30.855Z,1004.92
2017-10-02T07:37:30.832Z,1004.94
2017-10-02T07:38:30.810Z,1004.86
2017-10-02T07:39:30.789Z,1004.86
2017-10-02T07:40:30.766Z,1004.8
2017-10-02T07:41:30.745Z,1004.81
2017-10-02T07:42:30.725Z,1004.83
2017-10-02T07:43:30.705Z,1004.7
2017-10-02T07:44:30.679Z,1004.75
2017-10-02T07:45:30.667Z,1004.7
2017-10-02T07:46:30.636Z,1004.7
2017-10-02T07:47:30.614Z,1004.72
2017-10-02T07:48:30.592Z,1004.71
2017-10-02T07:49:30.569Z,1004.78
2017-10-02T07:50:30.551Z,1004.73
2017-10-02T07:51:30.530Z,1004.73
2017-10-02T07:52:30.503Z,1004.72
2017-10-02T07:53:30.490Z,1004.76
2017-10-02T07:54:30.461Z,1004.75
2017-10-02T07:55:30.438Z,1004.91
2017-10-02T07:56:30.415Z,1005
2017-10-02T07:57:30.395Z,1005.08
2017-10-02T07:58:30.370Z,1005.07
2017-10-02T07:59:30.352Z,1004.99
2017-10-02T08:00:30.330Z,1004.86
2017-10-02T08:01:30.306Z,1004.82
2017-10-02T08:02:30.285Z,1004.79
2017-10-02T08:03:30.262Z,1004.82
2017-10-02T08:04:30.241Z,1004.93
2017-10-02T08:05:30.221Z,1004.98
2017-10-02T08:06:30.198Z,1005
2017-10-02T08:07:30.175Z,1005.01
2017-10-02T08:08:30.154Z,1004.93
2017-10-02T08:09:30.135Z,1004.89
2017-10-02T08:10:30.112Z,1004.92
2017-10-02T08:11:30.092Z,1004.91
2017-10-02T08:12:30.068Z,1004.96
2017-10-02T08:13:30.048Z,1004.99
2017-10-02T08:14:30.025Z,1005.01
2017-10-02T08:15:30.004Z,1005
2017-10-02T08:16:29.983Z,1005.02
2017-10-02T08:17:29.963Z,1005.01
2017-10-02T08:18:29.937Z,1005.06
2017-10-02T08:19:29.915Z,1005.06
2017-10-02T08:20:29.897Z,1005.11
2017-10-02T08:21:29.873Z,1005.15
2017-10-02T08:22:29.851Z,1005.17
2017-10-02T08:23:29.833Z,1005.22
2017-10-02T08:24:29.814Z,1005.29
2017-10-02T08:25:29.781Z,1005.28
2017-10-02T08:26:29.770Z,1005.17
2017-10-02T08:27:29.745Z,1005.16
2017-10-02T08:28:29.729Z,1005.07
2017-10-02T08:29:29.701Z,1005.15
2017-10-02T08:30:29.678Z,1005.08
2017-10-02T08:31:29.681Z,1005.12
2017-10-02T08:32:29.640Z,1005.05
2017-10-02T08:33:29.629Z,1005.03
2017-10-02T08:34:29.595Z,1005.1
2017-10-02T08:35:29.577Z,1005.02
2017-10-02T08:36:29.553Z,1005.1
2017-10-02T08:37:29.528Z,1005.06
2017-10-02T08:38:29.509Z,1005.07
2017-10-02T08:39:29.488Z,1005.08
2017-10-02T08:40:29.466Z,1005.13
2017-10-02T08:41:29.443Z,1005.09
2017-10-02T08:42:29.428Z,1005.18
2017-10-02T08:43:29.401Z,1005.2
2017-10-02T08:44:29.380Z,1005.21
2017-10-02T08:45:29.359Z,1005.23
2017-10-02T08:46:29.338Z,1005.26
2017-10-02T08:47:29.315Z,1005.29
2017-10-02T08:48:29.296Z,1005.23
2017-10-02T08:49:29.274Z,1005.29
2017-10-02T08:50:29.253Z,1005.25
2017-10-02T08:51:29.229Z,1005.21
2017-10-02T08:52:29.214Z,1005.17
2017-10-02T08:53:29.189Z,1005.23
2017-10-02T08:54:29.166Z,1005.24
2017-10-02T08:55:29.144Z,1005.22
2017-10-02T08:56:29.125Z,1005.24
2017-10-02T08:57:29.105Z,1005.32
2017-10-02T08:58:29.079Z,1005.34
2017-10-02T08:59:29.062Z,1005.34
2017-10-02T09:00:29.041Z,1005.32
2017-10-02T09:01:29.028Z,1005.29
2017-10-02T09:02:28.998Z,1005.32
2017-10-02T09:03:28.978Z,1005.35
2017-10-02T09:04:28.956Z,1005.39
2017-10-02T09:05:28.935Z,1005.35
2017-10-02T09:06:28.913Z,1005.38
2017-10-02T09:07:28.896Z,1005.33
2017-10-02T09:08:28.874Z,1005.37
2017-10-02T09:09:28.854Z,1005.41
2017-10-02T09:10:28.830Z,1005.46
2017-10-02T09:11:28.810Z,1005.44
2017-10-02T09:12:28.793Z,1005.45
2017-10-02T09:13:28.772Z,1005.48
2017-10-02T09:14:28.747Z,1005.44
2017-10-02T09:15:28.730Z,1005.47
2017-10-02T09:16:28.705Z,1005.42
2017-10-02T09:17:28.690Z,1005.42
2017-10-02T09:18:28.664Z,1005.42
2017-10-02T09:19:28.644Z,1005.38
2017-10-02T09:20:28.623Z,1005.4
2017-10-02T09:21:28.600Z,1005.35
2017-10-02T09:22:28.586Z,1005.41
2017-10-02T09:23:28.564Z,1005.42
2017-10-02T09:24:28.542Z,1005.38
2017-10-02T09:25:28.524Z,1005.35
2017-10-02T09:26:28.501Z,1005.25
2017-10-02T09:27:28.479Z,1005.23
2017-10-02T09:28:28.457Z,1005.23
2017-10-02T09:29:28.438Z,1005.22
2017-10-02T09:30:28.417Z,1005.24
2017-10-02T09:31:28.395Z,1005.18
2017-10-02T09:32:28.374Z,1005.19
2017-10-02T09:33:28.353Z,1005.12
2017-10-02T09:34:28.336Z,1005.14
2017-10-02T09:35:28.314Z,1005.16
2017-10-02T09:36:28.295Z,1005.08
2017-10-02T09:37:28.271Z,1005.1
2017-10-02T09:38:28.281Z,1005.06
2017-10-02T09:39:28.230Z,1005.01
2017-10-02T09:40:28.223Z,1005.02
2017-10-02T09:41:28.197Z,1004.95
2017-10-02T09:42:28.172Z,1004.96
2017-10-02T09:43:28.152Z,1004.92
2017-10-02T09:44:28.132Z,1004.97
2017-10-02T09:45:28.113Z,1004.94
2017-10-02T09:46:28.090Z,1004.92
2017-10-02T09:47:28.070Z,1004.85
2017-10-02T09:48:28.051Z,1004.89
2017-10-02T09:49:28.031Z,1004.88
2017-10-02T09:50:28.014Z,1004.8
2017-10-02T09:51:27.987Z,1004.77
2017-10-02T09:52:27.973Z,1004.83
2017-10-02T09:53:27.950Z,1004.81
2017-10-02T09:54:27.929Z,1004.91
2017-10-02T09:55:27.910Z,1004.84
2017-10-02T09:56:27.890Z,1004.87
2017-10-02T09:57:27.870Z,1004.9
2017-10-02T09:58:27.857Z,1004.9
2017-10-02T09:59:27.834Z,1004.88
2017-10-02T10:00:27.810Z,1004.88
2017-10-02T10:01:27.789Z,1004.85
2017-10-02T10:02:27.773Z,1004.87
2017-10-02T10:03:27.750Z,1004.85
2017-10-02T10:04:27.733Z,1004.89
2017-10-02T10:05:27.710Z,1004.78
2017-10-02T10:06:27.692Z,1004.82
2017-10-02T10:07:27.669Z,1004.82
2017-10-02T10:08:27.650Z,1004.85
2017-10-02T10:09:27.633Z,1004.83
2017-10-02T10:10:27.615Z,1004.89
2017-10-02T10:11:27.592Z,1004.81
2017-10-02T10:12:27.573Z,1004.82
2017-10-02T10:13:27.555Z,1004.78
2017-10-02T10:14:27.535Z,1004.85
2017-10-02T10:15:27.512Z,1004.84
2017-10-02T10:16:27.496Z,1004.84
2017-10-02T10:17:27.477Z,1004.88
2017-10-02T10:18:27.454Z,1004.93
2017-10-02T10:19:27.435Z,1004.9
2017-10-02T10:20:27.415Z,1004.88
2017-10-02T10:21:27.404Z,1004.91
2017-10-02T10:22:27.385Z,1004.97
2017-10-02T10:23:27.356Z,1004.93
2017-10-02T10:24:27.336Z,1004.92
2017-10-02T10:25:27.320Z,1004.91
2017-10-02T10:26:27.300Z,1004.96
2017-10-02T10:27:27.279Z,1004.97
2017-10-02T10:28:27.312Z,1004.98
2017-10-02T10:29:27.239Z,1004.99
2017-10-02T10:30:27.221Z,1004.96
2017-10-02T10:31:27.199Z,1005
2017-10-02T10:32:27.184Z,1005.03
2017-10-02T10:33:27.167Z,1004.96
2017-10-02T10:34:27.144Z,1004.98
2017-10-02T10:35:27.125Z,1005.01
2017-10-02T10:36:27.105Z,1004.99
2017-10-02T10:37:27.085Z,1004.99
2017-10-02T10:38:27.066Z,1005.06
2017-10-02T10:39:27.048Z,1004.99
2017-10-02T10:40:27.031Z,1005.04
2017-10-02T10:41:27.009Z,1004.97
2017-10-02T10:42:26.990Z,1005.01
2017-10-02T10:43:26.981Z,1005.07
2017-10-02T10:44:26.953Z,1005.03
2017-10-02T10:45:26.935Z,1005.03
2017-10-02T10:46:26.916Z,1005.09
2017-10-02T10:47:26.898Z,1005.07
2017-10-02T10:48:26.882Z,1005.07
2017-10-02T10:49:26.857Z,1005.05
2017-10-02T10:50:26.840Z,1005.08
2017-10-02T10:51:26.819Z,1005.03
2017-10-02T10:52:26.802Z,1005.07
2017-10-02T10:53:26.788Z,1005.04
2017-10-02T10:54:26.764Z,1005
2017-10-02T10:55:26.745Z,1004.98
2017-10-02T10:56:26.728Z,1004.98
2017-10-02T10:57:26.710Z,1004.97
2017-10-02T10:58:26.689Z,1005
2017-10-02T10:59:26.670Z,1005.01
2017-10-02T11:00:26.650Z,1004.97
2017-10-02T11:01:26.633Z,1005.01
2017-10-02T11:02:26.614Z,1005.03
2017-10-02T11:03:26.599Z,1005.02
2017-10-02T11:04:26.576Z,1005.01
2017-10-02T11:05:26.563Z,1004.96
2017-10-02T11:06:26.537Z,1005
2017-10-02T11:07:26.523Z,1005.06
2017-10-02T11:08:26.500Z,1005.01
2017-10-02T11:09:26.481Z,1004.98
2017-10-02T11:10:26.463Z,1004.96
2017-10-02T11:11:26.445Z,1004.95
2017-10-02T11:12:26.427Z,1005
2017-10-02T11:13:26.406Z,1005.03
2017-10-02T11:14:26.387Z,1005.03
2017-10-02T11:15:26.368Z,1005.02
2017-10-02T11:16:26.350Z,1004.98
2017-10-02T11:17:26.335Z,1005.04
2017-10-02T11:18:26.313Z,1005.07
2017-10-02T11:19:26.293Z,1005.06
2017-10-02T11:20:26.274Z,1005.03
2017-10-02T11:21:26.258Z,1004.97
2017-10-02T11:22:26.239Z,1004.92
2017-10-02T11:23:26.268Z,1004.9
2017-10-02T11:24:26.199Z,1004.88
2017-10-02T11:25:26.180Z,1004.84
2017-10-02T11:26:26.160Z,1004.78
2017-10-02T11:27:26.148Z,1004.84
2017-10-02T11:28:26.122Z,1004.77
2017-10-02T11:29:26.106Z,1004.83
2017-10-02T11:30:26.117Z,1004.83
2017-10-02T11:31:26.072Z,1004.86
2017-10-02T11:32:26.048Z,1004.87
2017-10-02T11:33:26.028Z,1004.94
2017-10-02T11:34:26.014Z,1005.04
2017-10-02T11:35:25.995Z,1005.02
2017-10-02T11:36:25.973Z,1004.94
2017-10-02T11:37:25.956Z,1004.94
2017-10-02T11:38:25.936Z,1005
2017-10-02T11:39:25.947Z,1004.98
2017-10-02T11:40:25.898Z,1004.96
2017-10-02T11:41:25.878Z,1005.05
2017-10-02T11:42:25.866Z,1005.02
2017-10-02T11:43:25.852Z,1005.06
2017-10-02T11:44:25.829Z,1005
2017-10-02T11:45:25.799Z,1005.11
2017-10-02T11:46:25.781Z,1005.11
2017-10-02T11:47:25.764Z,1005.14
2017-10-02T11:48:25.751Z,1005.13
2017-10-02T11:49:25.723Z,1005.13
2017-10-02T11:50:25.702Z,1005.04
2017-10-02T11:51:25.683Z,1005
2017-10-02T11:52:25.662Z,1004.96
2017-10-02T11:53:25.644Z,1005
2017-10-02T11:54:25.630Z,1005.03
2017-10-02T11:55:25.612Z,1005.12
2017-10-02T11:56:25.585Z,1005.13
2017-10-02T11:57:25.564Z,1005.1
2017-10-02T11:58:25.554Z,1005.12
2017-10-02T11:59:25.536Z,1005.19
2017-10-02T12:00:25.510Z,1005.21
2017-10-02T12:01:25.491Z,1005.22
2017-10-02T12:02:25.471Z,1005.21
2017-10-02T12:03:25.462Z,1005.34
2017-10-02T12:04:25.428Z,1005.31
2017-10-02T12:05:25.406Z,1005.41
2017-10-02T12:06:25.388Z,1005.43
2017-10-02T12:07:25.369Z,1005.4
2017-10-02T12:08:25.355Z,1005.45